KABR/ABR METAR and TAF weather

Enter ICAO airport designator
Station Type Date Time Source
KABR METAR 2019/08/22 02:53 UTC NOAA

KABR 220253Z AUTO 07004KT 10SM CLR 17/13 A3008 RMK AO2 SLP182 T01720128 53006


Station Type Date Time Source
KABR Decoded METAR 2019/08/22 02:53 UTC NOAA

Station name not available
Aug 21, 2019 - 10:53 PM EDT / 2019.08.22 0253 UTC
Wind: from the ENE (070 degrees) at 5 MPH (4 KT):0
Visibility: 10 mile(s):0
Sky conditions: clear
Temperature: 63.0 F (17.2 C)
Dew Point: 55.0 F (12.8 C)
Relative Humidity: 75%
Pressure (altimeter): 30.08 in. Hg (1018 hPa)
Pressure tendency: 0.02 inches (0.6 hPa) higher than three hours ago
ob: KABR 220253Z AUTO 07004KT 10SM CLR 17/13 A3008 RMK AO2 SLP182 T01720128 53006
cycle: 3

Station Type Date Time Source
KABR TAF 2019/08/21 18:27 UTC NOAA

TAF KABR 211724Z 2118/2218 34006KT P6SM SCT250
FM220100 VRB03KT P6SM SKC
FM221500 14008KT P6SM SKC

Example: see airport list